sensor_id;sensor_type;location;lat;lon;timestamp;temperature;humidity
21163;DHT22;10739;52.198;20.908;2022-12-18T00:01:35;-4.90;99.90
21163;DHT22;10739;52.198;20.908;2022-12-18T00:04:04;-4.90;99.90
21163;DHT22;10739;52.198;20.908;2022-12-18T00:06:32;-4.80;99.90
21163;DHT22;10739;52.198;20.908;2022-12-18T00:09:00;-4.70;99.90
21163;DHT22;10739;52.198;20.908;2022-12-18T00:11:29;-4.80;99.90
21163;DHT22;10739;52.198;20.908;2022-12-18T00:13:58;-4.70;99.90
21163;DHT22;10739;52.198;20.908;2022-12-18T00:16:26;-4.70;99.90
21163;DHT22;10739;52.198;20.908;2022-12-18T00:18:55;-4.60;99.90
21163;DHT22;10739;52.198;20.908;2022-12-18T00:21:23;-4.60;99.90
21163;DHT22;10739;52.198;20.908;2022-12-18T00:23:49;-4.50;99.90
21163;DHT22;10739;52.198;20.908;2022-12-18T00:26:22;-4.50;99.90
21163;DHT22;10739;52.198;20.908;2022-12-18T00:28:52;-4.40;99.90
21163;DHT22;10739;52.198;20.908;2022-12-18T00:31:22;-4.50;99.90
21163;DHT22;10739;52.198;20.908;2022-12-18T00:33:50;-4.50;99.90
21163;DHT22;10739;52.198;20.908;2022-12-18T00:36:22;-4.50;99.90
21163;DHT22;10739;52.198;20.908;2022-12-18T00:38:50;-4.50;99.90
21163;DHT22;10739;52.198;20.908;2022-12-18T00:41:17;-4.50;99.90
21163;DHT22;10739;52.198;20.908;2022-12-18T00:44:04;-4.40;99.90
21163;DHT22;10739;52.198;20.908;2022-12-18T00:46:32;-4.40;99.90
21163;DHT22;10739;52.198;20.908;2022-12-18T00:48:58;-4.30;99.90
21163;DHT22;10739;52.198;20.908;2022-12-18T00:51:25;-4.40;99.90
21163;DHT22;10739;52.198;20.908;2022-12-18T00:53:52;-4.40;99.90
21163;DHT22;10739;52.198;20.908;2022-12-18T00:56:18;-4.40;99.90
21163;DHT22;10739;52.198;20.908;2022-12-18T00:58:45;-4.30;99.90
21163;DHT22;10739;52.198;20.908;2022-12-18T01:01:11;-4.30;99.90
21163;DHT22;10739;52.198;20.908;2022-12-18T01:03:37;-4.30;99.90
21163;DHT22;10739;52.198;20.908;2022-12-18T01:06:11;-4.10;99.90
21163;DHT22;10739;52.198;20.908;2022-12-18T01:08:39;-4.30;99.90
21163;DHT22;10739;52.198;20.908;2022-12-18T01:11:11;-4.30;99.90
21163;DHT22;10739;52.198;20.908;2022-12-18T01:13:40;-4.40;99.90
21163;DHT22;10739;52.198;20.908;2022-12-18T01:16:07;-4.40;99.90
21163;DHT22;10739;52.198;20.908;2022-12-18T01:18:35;-4.40;99.90
21163;DHT22;10739;52.198;20.908;2022-12-18T01:21:06;-4.30;99.90
21163;DHT22;10739;52.198;20.908;2022-12-18T01:23:33;-4.40;99.90
21163;DHT22;10739;52.198;20.908;2022-12-18T01:26:15;-4.40;99.90
21163;DHT22;10739;52.198;20.908;2022-12-18T01:28:42;-4.40;99.90
21163;DHT22;10739;52.198;20.908;2022-12-18T01:31:18;-4.40;99.90
21163;DHT22;10739;52.198;20.908;2022-12-18T01:33:46;-4.40;99.90
21163;DHT22;10739;52.198;20.908;2022-12-18T01:36:18;-4.40;99.90
21163;DHT22;10739;52.198;20.908;2022-12-18T01:38:49;-4.40;99.90
21163;DHT22;10739;52.198;20.908;2022-12-18T01:41:22;-4.20;99.90
21163;DHT22;10739;52.198;20.908;2022-12-18T01:46:24;-4.20;99.90
21163;DHT22;10739;52.198;20.908;2022-12-18T01:48:57;-4.20;99.90
21163;DHT22;10739;52.198;20.908;2022-12-18T01:51:27;-4.30;99.90
21163;DHT22;10739;52.198;20.908;2022-12-18T01:53:55;-4.20;99.90
21163;DHT22;10739;52.198;20.908;2022-12-18T01:56:22;-4.20;99.90
21163;DHT22;10739;52.198;20.908;2022-12-18T01:58:54;-4.30;99.90
21163;DHT22;10739;52.198;20.908;2022-12-18T02:01:26;-4.30;99.90
21163;DHT22;10739;52.198;20.908;2022-12-18T02:03:53;-4.30;99.90
21163;DHT22;10739;52.198;20.908;2022-12-18T02:06:33;-4.30;99.90
21163;DHT22;10739;52.198;20.908;2022-12-18T02:09:17;-4.20;99.90
21163;DHT22;10739;52.198;20.908;2022-12-18T02:12:24;-5.30;99.90
21163;DHT22;10739;52.198;20.908;2022-12-18T02:15:00;-4.30;99.90
21163;DHT22;10739;52.198;20.908;2022-12-18T02:17:57;-4.30;99.90
21163;DHT22;10739;52.198;20.908;2022-12-18T02:20:49;-4.30;99.90
21163;DHT22;10739;52.198;20.908;2022-12-18T02:26:24;-4.20;99.90
21163;DHT22;10739;52.198;20.908;2022-12-18T02:29:37;-4.10;99.90
21163;DHT22;10739;52.198;20.908;2022-12-18T02:32:13;-4.20;99.90
21163;DHT22;10739;52.198;20.908;2022-12-18T02:34:44;-4.30;99.90
21163;DHT22;10739;52.198;20.908;2022-12-18T02:37:15;-4.20;99.90
21163;DHT22;10739;52.198;20.908;2022-12-18T02:39:46;-4.30;99.90
21163;DHT22;10739;52.198;20.908;2022-12-18T02:42:15;-4.30;99.90
21163;DHT22;10739;52.198;20.908;2022-12-18T02:44:48;-4.30;99.90
21163;DHT22;10739;52.198;20.908;2022-12-18T02:47:18;-4.30;99.90
21163;DHT22;10739;52.198;20.908;2022-12-18T02:53:22;-4.20;99.90
21163;DHT22;10739;52.198;20.908;2022-12-18T02:55:53;-4.30;99.90
21163;DHT22;10739;52.198;20.908;2022-12-18T03:01:55;-4.20;99.90
21163;DHT22;10739;52.198;20.908;2022-12-18T03:04:38;-4.20;99.90
21163;DHT22;10739;52.198;20.908;2022-12-18T03:07:11;-4.30;99.90
21163;DHT22;10739;52.198;20.908;2022-12-18T03:09:44;-4.30;99.90
21163;DHT22;10739;52.198;20.908;2022-12-18T03:12:19;-4.30;99.90
21163;DHT22;10739;52.198;20.908;2022-12-18T03:15:26;-4.30;99.90
21163;DHT22;10739;52.198;20.908;2022-12-18T03:18:01;-4.20;99.90
21163;DHT22;10739;52.198;20.908;2022-12-18T03:20:34;-4.30;99.90
21163;DHT22;10739;52.198;20.908;2022-12-18T03:23:07;-4.30;99.90
21163;DHT22;10739;52.198;20.908;2022-12-18T03:25:42;-4.20;99.90
21163;DHT22;10739;52.198;20.908;2022-12-18T03:28:14;-4.30;99.90
21163;DHT22;10739;52.198;20.908;2022-12-18T03:30:46;-4.20;99.90
21163;DHT22;10739;52.198;20.908;2022-12-18T03:36:23;-4.20;99.90
21163;DHT22;10739;52.198;20.908;2022-12-18T03:38:50;-4.30;99.90
21163;DHT22;10739;52.198;20.908;2022-12-18T03:50:39;-4.30;99.90
21163;DHT22;10739;52.198;20.908;2022-12-18T03:56:12;-4.40;99.90
21163;DHT22;10739;52.198;20.908;2022-12-18T03:58:42;-4.40;99.90
21163;DHT22;10739;52.198;20.908;2022-12-18T04:01:12;-4.40;99.90
21163;DHT22;10739;52.198;20.908;2022-12-18T04:03:43;-4.50;99.90
21163;DHT22;10739;52.198;20.908;2022-12-18T04:06:12;-4.50;99.90
21163;DHT22;10739;52.198;20.908;2022-12-18T04:08:41;-4.40;99.90
21163;DHT22;10739;52.198;20.908;2022-12-18T04:11:07;-4.40;99.90
21163;DHT22;10739;52.198;20.908;2022-12-18T04:13:37;-4.70;99.90
21163;DHT22;10739;52.198;20.908;2022-12-18T04:16:04;-4.60;99.90
21163;DHT22;10739;52.198;20.908;2022-12-18T04:18:31;-4.60;99.90
21163;DHT22;10739;52.198;20.908;2022-12-18T04:20:57;-4.50;99.90
21163;DHT22;10739;52.198;20.908;2022-12-18T04:23:23;-4.60;99.90
21163;DHT22;10739;52.198;20.908;2022-12-18T04:25:49;-4.50;99.90
21163;DHT22;10739;52.198;20.908;2022-12-18T04:28:15;-4.50;99.90
21163;DHT22;10739;52.198;20.908;2022-12-18T04:30:41;-4.50;99.90
21163;DHT22;10739;52.198;20.908;2022-12-18T04:33:09;-4.60;99.90
21163;DHT22;10739;52.198;20.908;2022-12-18T04:35:37;-4.80;99.90
21163;DHT22;10739;52.198;20.908;2022-12-18T04:38:06;-4.90;99.90
21163;DHT22;10739;52.198;20.908;2022-12-18T04:40:34;-4.90;99.90
21163;DHT22;10739;52.198;20.908;2022-12-18T04:43:00;-5.10;99.90
21163;DHT22;10739;52.198;20.908;2022-12-18T04:45:26;-5.10;99.90
21163;DHT22;10739;52.198;20.908;2022-12-18T04:47:53;-5.20;99.90
21163;DHT22;10739;52.198;20.908;2022-12-18T04:50:19;-5.20;99.90
21163;DHT22;10739;52.198;20.908;2022-12-18T04:52:45;-5.20;99.90
21163;DHT22;10739;52.198;20.908;2022-12-18T04:55:11;-5.20;99.90
21163;DHT22;10739;52.198;20.908;2022-12-18T04:57:37;-5.10;99.90
21163;DHT22;10739;52.198;20.908;2022-12-18T05:00:04;-5.00;99.90
21163;DHT22;10739;52.198;20.908;2022-12-18T05:02:32;-5.20;99.90
21163;DHT22;10739;52.198;20.908;2022-12-18T05:04:58;-5.20;99.90
21163;DHT22;10739;52.198;20.908;2022-12-18T05:07:24;-5.30;99.90
21163;DHT22;10739;52.198;20.908;2022-12-18T05:09:51;-5.40;99.90
21163;DHT22;10739;52.198;20.908;2022-12-18T05:12:17;-5.40;99.90
21163;DHT22;10739;52.198;20.908;2022-12-18T05:14:43;-5.30;99.90
21163;DHT22;10739;52.198;20.908;2022-12-18T05:17:09;-5.30;99.90
21163;DHT22;10739;52.198;20.908;2022-12-18T05:19:36;-5.30;99.90
21163;DHT22;10739;52.198;20.908;2022-12-18T05:22:03;-5.40;99.90
21163;DHT22;10739;52.198;20.908;2022-12-18T05:24:29;-5.40;99.90
21163;DHT22;10739;52.198;20.908;2022-12-18T05:26:56;-5.50;99.90
21163;DHT22;10739;52.198;20.908;2022-12-18T05:29:22;-5.50;99.90
21163;DHT22;10739;52.198;20.908;2022-12-18T05:31:48;-5.40;99.90
21163;DHT22;10739;52.198;20.908;2022-12-18T05:34:14;-5.40;99.90
21163;DHT22;10739;52.198;20.908;2022-12-18T05:36:41;-5.40;99.90
21163;DHT22;10739;52.198;20.908;2022-12-18T05:39:07;-5.30;99.90
21163;DHT22;10739;52.198;20.908;2022-12-18T05:41:34;-5.30;99.90
21163;DHT22;10739;52.198;20.908;2022-12-18T05:44:00;-5.30;99.90
21163;DHT22;10739;52.198;20.908;2022-12-18T05:46:26;-5.20;99.90
21163;DHT22;10739;52.198;20.908;2022-12-18T05:48:52;-5.20;99.90
21163;DHT22;10739;52.198;20.908;2022-12-18T05:51:21;-5.20;99.90
21163;DHT22;10739;52.198;20.908;2022-12-18T05:53:48;-5.30;99.90
21163;DHT22;10739;52.198;20.908;2022-12-18T05:56:17;-5.30;99.90
21163;DHT22;10739;52.198;20.908;2022-12-18T05:58:46;-5.20;99.90
21163;DHT22;10739;52.198;20.908;2022-12-18T06:01:18;-5.20;99.90
21163;DHT22;10739;52.198;20.908;2022-12-18T06:03:47;-5.30;99.90
21163;DHT22;10739;52.198;20.908;2022-12-18T06:06:17;-5.30;99.90
21163;DHT22;10739;52.198;20.908;2022-12-18T06:08:51;-5.40;99.90
21163;DHT22;10739;52.198;20.908;2022-12-18T06:11:21;-5.30;99.90
21163;DHT22;10739;52.198;20.908;2022-12-18T06:13:53;-5.20;99.90
21163;DHT22;10739;52.198;20.908;2022-12-18T06:16:21;-5.20;99.90
21163;DHT22;10739;52.198;20.908;2022-12-18T06:18:47;-5.20;99.90
21163;DHT22;10739;52.198;20.908;2022-12-18T06:21:13;-5.20;99.90
21163;DHT22;10739;52.198;20.908;2022-12-18T06:23:39;-5.20;99.90
21163;DHT22;10739;52.198;20.908;2022-12-18T06:26:10;-5.20;99.90
21163;DHT22;10739;52.198;20.908;2022-12-18T06:28:37;-5.10;99.90
21163;DHT22;10739;52.198;20.908;2022-12-18T06:31:04;-5.10;99.90
21163;DHT22;10739;52.198;20.908;2022-12-18T06:33:32;-5.10;99.90
21163;DHT22;10739;52.198;20.908;2022-12-18T06:36:07;-5.10;99.90
21163;DHT22;10739;52.198;20.908;2022-12-18T06:38:38;-5.10;99.90
21163;DHT22;10739;52.198;20.908;2022-12-18T06:41:10;-6.00;99.90
21163;DHT22;10739;52.198;20.908;2022-12-18T06:43:45;-5.20;99.90
21163;DHT22;10739;52.198;20.908;2022-12-18T06:46:12;-5.10;99.90
21163;DHT22;10739;52.198;20.908;2022-12-18T06:48:38;-5.10;99.90
21163;DHT22;10739;52.198;20.908;2022-12-18T06:51:05;-5.00;99.90
21163;DHT22;10739;52.198;20.908;2022-12-18T06:53:32;-5.00;99.90
21163;DHT22;10739;52.198;20.908;2022-12-18T06:56:03;-5.00;99.90
21163;DHT22;10739;52.198;20.908;2022-12-18T06:58:32;-4.90;99.90
21163;DHT22;10739;52.198;20.908;2022-12-18T07:01:02;-5.00;99.90
21163;DHT22;10739;52.198;20.908;2022-12-18T07:03:31;-4.90;99.90
21163;DHT22;10739;52.198;20.908;2022-12-18T07:05:57;-5.00;99.90
21163;DHT22;10739;52.198;20.908;2022-12-18T07:08:24;-4.90;99.90
21163;DHT22;10739;52.198;20.908;2022-12-18T07:10:51;-4.90;99.90
21163;DHT22;10739;52.198;20.908;2022-12-18T07:13:17;-4.90;99.90
21163;DHT22;10739;52.198;20.908;2022-12-18T07:15:43;-4.90;99.90
21163;DHT22;10739;52.198;20.908;2022-12-18T07:18:10;-4.90;99.90
21163;DHT22;10739;52.198;20.908;2022-12-18T07:20:36;-4.90;99.90
21163;DHT22;10739;52.198;20.908;2022-12-18T07:23:03;-5.00;99.90
21163;DHT22;10739;52.198;20.908;2022-12-18T07:25:34;-4.90;99.90
21163;DHT22;10739;52.198;20.908;2022-12-18T07:28:01;-4.80;99.90
21163;DHT22;10739;52.198;20.908;2022-12-18T07:30:28;-4.70;99.90
21163;DHT22;10739;52.198;20.908;2022-12-18T07:32:54;-4.60;99.90
21163;DHT22;10739;52.198;20.908;2022-12-18T07:35:20;-4.60;99.90
21163;DHT22;10739;52.198;20.908;2022-12-18T07:37:46;-4.50;99.90
21163;DHT22;10739;52.198;20.908;2022-12-18T07:40:12;-4.60;99.90
21163;DHT22;10739;52.198;20.908;2022-12-18T07:42:38;-4.60;99.90
21163;DHT22;10739;52.198;20.908;2022-12-18T07:45:05;-4.50;99.90
21163;DHT22;10739;52.198;20.908;2022-12-18T07:47:34;-4.60;99.90
21163;DHT22;10739;52.198;20.908;2022-12-18T07:50:03;-4.50;99.90
21163;DHT22;10739;52.198;20.908;2022-12-18T07:52:30;-4.50;99.90
21163;DHT22;10739;52.198;20.908;2022-12-18T07:54:56;-4.50;99.90
21163;DHT22;10739;52.198;20.908;2022-12-18T07:57:22;-4.60;99.90
21163;DHT22;10739;52.198;20.908;2022-12-18T07:59:48;-4.70;99.90
21163;DHT22;10739;52.198;20.908;2022-12-18T08:02:14;-4.80;99.90
21163;DHT22;10739;52.198;20.908;2022-12-18T08:04:41;-4.90;99.90
21163;DHT22;10739;52.198;20.908;2022-12-18T08:07:07;-4.80;99.90
21163;DHT22;10739;52.198;20.908;2022-12-18T08:09:33;-4.80;99.90
21163;DHT22;10739;52.198;20.908;2022-12-18T08:12:00;-4.70;99.90
21163;DHT22;10739;52.198;20.908;2022-12-18T08:14:26;-4.60;99.90
21163;DHT22;10739;52.198;20.908;2022-12-18T08:16:52;-4.60;99.90
21163;DHT22;10739;52.198;20.908;2022-12-18T08:19:18;-4.60;99.90
21163;DHT22;10739;52.198;20.908;2022-12-18T08:21:45;-4.50;99.90
21163;DHT22;10739;52.198;20.908;2022-12-18T08:24:11;-4.40;99.90
21163;DHT22;10739;52.198;20.908;2022-12-18T08:26:37;-4.40;99.90
21163;DHT22;10739;52.198;20.908;2022-12-18T08:29:04;-4.30;99.90
21163;DHT22;10739;52.198;20.908;2022-12-18T08:31:31;-4.40;99.90
21163;DHT22;10739;52.198;20.908;2022-12-18T08:33:57;-4.70;99.90
21163;DHT22;10739;52.198;20.908;2022-12-18T08:36:24;-4.70;99.90
21163;DHT22;10739;52.198;20.908;2022-12-18T08:38:52;-4.80;99.90
21163;DHT22;10739;52.198;20.908;2022-12-18T08:41:18;-4.70;99.90
21163;DHT22;10739;52.198;20.908;2022-12-18T08:43:45;-4.70;99.90
21163;DHT22;10739;52.198;20.908;2022-12-18T08:46:36;-4.70;99.90
21163;DHT22;10739;52.198;20.908;2022-12-18T08:49:05;-4.60;99.90
21163;DHT22;10739;52.198;20.908;2022-12-18T08:51:33;-4.60;99.90
21163;DHT22;10739;52.198;20.908;2022-12-18T08:53:59;-4.60;99.90
21163;DHT22;10739;52.198;20.908;2022-12-18T08:56:26;-4.40;99.90
21163;DHT22;10739;52.198;20.908;2022-12-18T08:58:53;-4.40;99.90
21163;DHT22;10739;52.198;20.908;2022-12-18T09:01:20;-4.30;99.90
21163;DHT22;10739;52.198;20.908;2022-12-18T09:03:48;-4.20;99.90
21163;DHT22;10739;52.198;20.908;2022-12-18T09:06:16;-4.40;99.90
21163;DHT22;10739;52.198;20.908;2022-12-18T09:08:44;-4.30;99.90
21163;DHT22;10739;52.198;20.908;2022-12-18T09:11:29;-4.30;99.90
21163;DHT22;10739;52.198;20.908;2022-12-18T09:13:58;-4.30;99.90
21163;DHT22;10739;52.198;20.908;2022-12-18T09:16:28;-4.30;99.90
21163;DHT22;10739;52.198;20.908;2022-12-18T09:18:55;-4.30;99.90
21163;DHT22;10739;52.198;20.908;2022-12-18T09:21:27;-4.20;99.90
21163;DHT22;10739;52.198;20.908;2022-12-18T09:23:58;-5.70;99.90
21163;DHT22;10739;52.198;20.908;2022-12-18T09:26:26;-4.30;99.90
21163;DHT22;10739;52.198;20.908;2022-12-18T09:28:53;-4.50;99.90
21163;DHT22;10739;52.198;20.908;2022-12-18T09:31:20;-4.40;99.90
21163;DHT22;10739;52.198;20.908;2022-12-18T09:33:48;-4.40;99.90
21163;DHT22;10739;52.198;20.908;2022-12-18T09:36:16;-4.50;99.90
21163;DHT22;10739;52.198;20.908;2022-12-18T09:38:43;-4.50;99.90
21163;DHT22;10739;52.198;20.908;2022-12-18T09:41:50;-4.30;99.90
21163;DHT22;10739;52.198;20.908;2022-12-18T09:49:55;-4.80;99.90
21163;DHT22;10739;52.198;20.908;2022-12-18T09:52:39;-5.00;99.90
21163;DHT22;10739;52.198;20.908;2022-12-18T09:55:24;-4.90;99.90
21163;DHT22;10739;52.198;20.908;2022-12-18T10:00:41;-4.80;99.90
21163;DHT22;10739;52.198;20.908;2022-12-18T10:03:13;-4.60;99.90
21163;DHT22;10739;52.198;20.908;2022-12-18T10:05:53;-4.60;99.90
21163;DHT22;10739;52.198;20.908;2022-12-18T10:09:20;-4.50;99.90
21163;DHT22;10739;52.198;20.908;2022-12-18T10:12:30;-4.40;99.90
21163;DHT22;10739;52.198;20.908;2022-12-18T10:20:54;-4.20;99.90
21163;DHT22;10739;52.198;20.908;2022-12-18T10:23:36;-4.20;99.90
21163;DHT22;10739;52.198;20.908;2022-12-18T10:26:10;-4.40;99.90
21163;DHT22;10739;52.198;20.908;2022-12-18T10:28:40;-4.40;99.90
21163;DHT22;10739;52.198;20.908;2022-12-18T10:31:11;-4.40;99.90
21163;DHT22;10739;52.198;20.908;2022-12-18T10:33:44;-4.30;99.90
21163;DHT22;10739;52.198;20.908;2022-12-18T10:36:11;-4.10;99.90
21163;DHT22;10739;52.198;20.908;2022-12-18T10:38:37;-4.20;99.90
21163;DHT22;10739;52.198;20.908;2022-12-18T10:41:04;-4.10;99.90
21163;DHT22;10739;52.198;20.908;2022-12-18T10:43:40;-3.90;99.90
21163;DHT22;10739;52.198;20.908;2022-12-18T10:51:28;-3.60;99.90
21163;DHT22;10739;52.198;20.908;2022-12-18T10:54:14;-3.60;99.90
21163;DHT22;10739;52.198;20.908;2022-12-18T10:56:41;-3.50;99.90
21163;DHT22;10739;52.198;20.908;2022-12-18T10:59:10;-3.70;99.90
21163;DHT22;10739;52.198;20.908;2022-12-18T11:01:57;-3.70;99.90
21163;DHT22;10739;52.198;20.908;2022-12-18T11:04:27;-3.80;99.90
21163;DHT22;10739;52.198;20.908;2022-12-18T11:09:36;-3.40;99.90
21163;DHT22;10739;52.198;20.908;2022-12-18T11:12:16;-3.20;99.90
21163;DHT22;10739;52.198;20.908;2022-12-18T11:17:34;-3.50;99.90
21163;DHT22;10739;52.198;20.908;2022-12-18T11:22:59;-3.60;99.90
21163;DHT22;10739;52.198;20.908;2022-12-18T11:25:29;-3.50;99.90
21163;DHT22;10739;52.198;20.908;2022-12-18T11:28:04;-3.30;99.90
21163;DHT22;10739;52.198;20.908;2022-12-18T11:34:13;-3.30;99.90
21163;DHT22;10739;52.198;20.908;2022-12-18T11:36:59;-3.00;99.90
21163;DHT22;10739;52.198;20.908;2022-12-18T11:39:38;-2.80;99.90
21163;DHT22;10739;52.198;20.908;2022-12-18T11:47:58;-2.90;99.90
21163;DHT22;10739;52.198;20.908;2022-12-18T11:50:48;-2.80;99.90
21163;DHT22;10739;52.198;20.908;2022-12-18T11:53:17;-2.80;99.90
21163;DHT22;10739;52.198;20.908;2022-12-18T11:58:45;-2.50;99.90
21163;DHT22;10739;52.198;20.908;2022-12-18T12:24:18;-3.00;99.90
21163;DHT22;10739;52.198;20.908;2022-12-18T12:30:16;-3.20;99.90
21163;DHT22;10739;52.198;20.908;2022-12-18T12:35:44;-3.20;99.90
21163;DHT22;10739;52.198;20.908;2022-12-18T12:38:33;-3.20;99.90
21163;DHT22;10739;52.198;20.908;2022-12-18T12:41:24;-3.20;99.90
21163;DHT22;10739;52.198;20.908;2022-12-18T12:44:18;-3.20;99.90
21163;DHT22;10739;52.198;20.908;2022-12-18T12:46:57;-3.30;99.90
21163;DHT22;10739;52.198;20.908;2022-12-18T12:49:31;-3.30;99.90
21163;DHT22;10739;52.198;20.908;2022-12-18T12:52:06;-3.30;99.90
21163;DHT22;10739;52.198;20.908;2022-12-18T12:54:36;-3.40;99.90
21163;DHT22;10739;52.198;20.908;2022-12-18T12:57:37;-3.10;99.90
21163;DHT22;10739;52.198;20.908;2022-12-18T13:00:07;-3.40;99.90
21163;DHT22;10739;52.198;20.908;2022-12-18T13:05:38;-3.40;99.90
21163;DHT22;10739;52.198;20.908;2022-12-18T13:08:26;-3.40;99.90
21163;DHT22;10739;52.198;20.908;2022-12-18T13:10:58;-3.50;99.90
21163;DHT22;10739;52.198;20.908;2022-12-18T13:13:53;-3.50;99.90
21163;DHT22;10739;52.198;20.908;2022-12-18T13:16:22;-3.60;99.90
21163;DHT22;10739;52.198;20.908;2022-12-18T13:18:52;-3.70;99.90
21163;DHT22;10739;52.198;20.908;2022-12-18T13:21:32;-3.90;99.90
21163;DHT22;10739;52.198;20.908;2022-12-18T13:24:31;-3.90;99.90
21163;DHT22;10739;52.198;20.908;2022-12-18T13:26:58;-3.80;99.90
21163;DHT22;10739;52.198;20.908;2022-12-18T13:29:45;-4.00;99.90
21163;DHT22;10739;52.198;20.908;2022-12-18T13:32:23;-4.10;99.90
21163;DHT22;10739;52.198;20.908;2022-12-18T13:38:00;-4.20;99.90
21163;DHT22;10739;52.198;20.908;2022-12-18T13:45:49;-4.10;99.90
21163;DHT22;10739;52.198;20.908;2022-12-18T13:48:38;-4.30;99.90
21163;DHT22;10739;52.198;20.908;2022-12-18T13:51:07;-4.30;99.90
21163;DHT22;10739;52.198;20.908;2022-12-18T13:53:56;-4.30;99.90
21163;DHT22;10739;52.198;20.908;2022-12-18T13:56:31;-4.30;99.90
21163;DHT22;10739;52.198;20.908;2022-12-18T13:59:23;-4.20;99.90
21163;DHT22;10739;52.198;20.908;2022-12-18T14:02:23;-4.20;99.90
21163;DHT22;10739;52.198;20.908;2022-12-18T14:04:52;-4.20;99.90
21163;DHT22;10739;52.198;20.908;2022-12-18T14:07:24;-4.20;99.90
21163;DHT22;10739;52.198;20.908;2022-12-18T14:09:54;-4.20;99.90
21163;DHT22;10739;52.198;20.908;2022-12-18T14:12:33;-4.30;99.90
21163;DHT22;10739;52.198;20.908;2022-12-18T14:20:57;-4.40;99.90
21163;DHT22;10739;52.198;20.908;2022-12-18T14:23:38;-4.40;99.90
21163;DHT22;10739;52.198;20.908;2022-12-18T14:26:29;-4.50;99.90
21163;DHT22;10739;52.198;20.908;2022-12-18T14:28:58;-4.50;99.90
21163;DHT22;10739;52.198;20.908;2022-12-18T14:31:29;-4.40;99.90
21163;DHT22;10739;52.198;20.908;2022-12-18T14:33:57;-4.30;99.90
21163;DHT22;10739;52.198;20.908;2022-12-18T14:36:25;-4.30;99.90
21163;DHT22;10739;52.198;20.908;2022-12-18T14:38:55;-4.30;99.90
21163;DHT22;10739;52.198;20.908;2022-12-18T14:41:23;-4.30;99.90
21163;DHT22;10739;52.198;20.908;2022-12-18T14:43:52;-4.20;99.90
21163;DHT22;10739;52.198;20.908;2022-12-18T14:46:29;-4.20;99.90
21163;DHT22;10739;52.198;20.908;2022-12-18T14:48:57;-4.30;99.90
21163;DHT22;10739;52.198;20.908;2022-12-18T14:51:26;-4.20;99.90
21163;DHT22;10739;52.198;20.908;2022-12-18T14:53:59;-4.20;99.90
21163;DHT22;10739;52.198;20.908;2022-12-18T14:56:42;-4.20;99.90
21163;DHT22;10739;52.198;20.908;2022-12-18T14:59:19;-4.30;99.90
21163;DHT22;10739;52.198;20.908;2022-12-18T15:04:53;-4.40;99.90
21163;DHT22;10739;52.198;20.908;2022-12-18T15:07:50;-4.30;99.90
21163;DHT22;10739;52.198;20.908;2022-12-18T15:13:15;-4.30;99.90
21163;DHT22;10739;52.198;20.908;2022-12-18T15:15:54;-4.40;99.90
21163;DHT22;10739;52.198;20.908;2022-12-18T15:18:33;-4.40;99.90
21163;DHT22;10739;52.198;20.908;2022-12-18T15:21:11;-4.30;99.90
21163;DHT22;10739;52.198;20.908;2022-12-18T15:23:51;-4.30;99.90
21163;DHT22;10739;52.198;20.908;2022-12-18T15:26:20;-4.30;99.90
21163;DHT22;10739;52.198;20.908;2022-12-18T15:28:54;-4.30;99.90
21163;DHT22;10739;52.198;20.908;2022-12-18T15:31:30;-4.30;99.90
21163;DHT22;10739;52.198;20.908;2022-12-18T15:36:28;-4.30;99.90
21163;DHT22;10739;52.198;20.908;2022-12-18T15:39:02;-4.40;99.90
21163;DHT22;10739;52.198;20.908;2022-12-18T15:41:31;-4.40;99.90
21163;DHT22;10739;52.198;20.908;2022-12-18T15:44:00;-4.40;99.90
21163;DHT22;10739;52.198;20.908;2022-12-18T15:46:26;-4.40;99.90
21163;DHT22;10739;52.198;20.908;2022-12-18T15:48:57;-4.40;99.90
21163;DHT22;10739;52.198;20.908;2022-12-18T15:51:32;-4.50;99.90
21163;DHT22;10739;52.198;20.908;2022-12-18T15:54:03;-4.50;99.90
21163;DHT22;10739;52.198;20.908;2022-12-18T15:56:30;-4.50;99.90
21163;DHT22;10739;52.198;20.908;2022-12-18T15:59:20;-4.40;99.90
21163;DHT22;10739;52.198;20.908;2022-12-18T16:01:48;-4.40;99.90
21163;DHT22;10739;52.198;20.908;2022-12-18T16:04:19;-4.40;99.90
21163;DHT22;10739;52.198;20.908;2022-12-18T16:06:46;-4.50;99.90
21163;DHT22;10739;52.198;20.908;2022-12-18T16:09:13;-4.40;99.90
21163;DHT22;10739;52.198;20.908;2022-12-18T16:11:41;-4.40;99.90
21163;DHT22;10739;52.198;20.908;2022-12-18T16:14:24;-4.50;99.90
21163;DHT22;10739;52.198;20.908;2022-12-18T16:16:57;-4.40;99.90
21163;DHT22;10739;52.198;20.908;2022-12-18T16:19:29;-4.40;99.90
21163;DHT22;10739;52.198;20.908;2022-12-18T16:21:57;-4.50;99.90
21163;DHT22;10739;52.198;20.908;2022-12-18T16:24:26;-4.50;99.90
21163;DHT22;10739;52.198;20.908;2022-12-18T16:26:55;-4.50;99.90
21163;DHT22;10739;52.198;20.908;2022-12-18T16:29:23;-4.60;99.90
21163;DHT22;10739;52.198;20.908;2022-12-18T16:31:54;-4.80;99.90
21163;DHT22;10739;52.198;20.908;2022-12-18T16:36:59;-4.80;99.90
21163;DHT22;10739;52.198;20.908;2022-12-18T16:39:27;-4.80;99.90
21163;DHT22;10739;52.198;20.908;2022-12-18T16:41:54;-4.80;99.90
21163;DHT22;10739;52.198;20.908;2022-12-18T16:44:20;-4.60;99.90
21163;DHT22;10739;52.198;20.908;2022-12-18T16:46:47;-4.90;99.90
21163;DHT22;10739;52.198;20.908;2022-12-18T16:49:17;-4.90;99.90
21163;DHT22;10739;52.198;20.908;2022-12-18T16:51:46;-4.90;99.90
21163;DHT22;10739;52.198;20.908;2022-12-18T16:54:12;-4.90;99.90
21163;DHT22;10739;52.198;20.908;2022-12-18T16:56:38;-5.00;99.90
21163;DHT22;10739;52.198;20.908;2022-12-18T16:59:05;-5.20;99.90
21163;DHT22;10739;52.198;20.908;2022-12-18T17:01:32;-5.20;99.90
21163;DHT22;10739;52.198;20.908;2022-12-18T17:04:03;-5.10;99.90
21163;DHT22;10739;52.198;20.908;2022-12-18T17:06:33;-5.10;99.90
21163;DHT22;10739;52.198;20.908;2022-12-18T17:09:04;-3.90;99.90
21163;DHT22;10739;52.198;20.908;2022-12-18T17:11:33;-5.00;99.90
21163;DHT22;10739;52.198;20.908;2022-12-18T17:14:06;-5.10;99.90
21163;DHT22;10739;52.198;20.908;2022-12-18T17:16:37;-5.00;99.90
21163;DHT22;10739;52.198;20.908;2022-12-18T17:19:03;-5.00;99.90
21163;DHT22;10739;52.198;20.908;2022-12-18T17:21:30;-4.90;99.90
21163;DHT22;10739;52.198;20.908;2022-12-18T17:23:59;-4.90;99.90
21163;DHT22;10739;52.198;20.908;2022-12-18T17:26:26;-4.90;99.90
21163;DHT22;10739;52.198;20.908;2022-12-18T17:28:55;-4.90;99.90
21163;DHT22;10739;52.198;20.908;2022-12-18T17:31:24;-4.90;99.90
21163;DHT22;10739;52.198;20.908;2022-12-18T17:33:53;-5.10;99.90
21163;DHT22;10739;52.198;20.908;2022-12-18T17:36:20;-5.20;99.90
21163;DHT22;10739;52.198;20.908;2022-12-18T17:38:51;-5.20;99.90
21163;DHT22;10739;52.198;20.908;2022-12-18T17:41:18;-5.20;99.90
21163;DHT22;10739;52.198;20.908;2022-12-18T17:43:58;-5.20;99.90
21163;DHT22;10739;52.198;20.908;2022-12-18T17:46:28;-5.20;99.90
21163;DHT22;10739;52.198;20.908;2022-12-18T17:48:57;-5.10;99.90